sensor_id;sensor_type;location;lat;lon;timestamp;P1;durP1;ratioP1;P2;durP2;ratioP2
58260;SDS011;44058;52.898;6.502;2023-01-29T00:02:19;15.90;;;11.00;;
58260;SDS011;44058;52.898;6.502;2023-01-29T00:04:45;16.33;;;11.73;;
58260;SDS011;44058;52.898;6.502;2023-01-29T00:07:11;18.07;;;12.40;;
58260;SDS011;44058;52.898;6.502;2023-01-29T00:09:37;16.77;;;12.07;;
58260;SDS011;44058;52.898;6.502;2023-01-29T00:12:04;17.87;;;12.23;;
58260;SDS011;44058;52.898;6.502;2023-01-29T00:14:33;15.45;;;11.65;;
58260;SDS011;44058;52.898;6.502;2023-01-29T00:16:59;16.60;;;11.47;;
58260;SDS011;44058;52.898;6.502;2023-01-29T00:19:25;18.50;;;13.00;;
58260;SDS011;44058;52.898;6.502;2023-01-29T00:21:52;18.33;;;12.33;;
58260;SDS011;44058;52.898;6.502;2023-01-29T00:24:18;16.57;;;12.60;;
58260;SDS011;44058;52.898;6.502;2023-01-29T00:26:44;17.00;;;12.27;;
58260;SDS011;44058;52.898;6.502;2023-01-29T00:29:11;17.17;;;12.60;;
58260;SDS011;44058;52.898;6.502;2023-01-29T00:31:37;18.50;;;12.67;;
58260;SDS011;44058;52.898;6.502;2023-01-29T00:34:03;16.20;;;11.97;;
58260;SDS011;44058;52.898;6.502;2023-01-29T00:36:29;18.57;;;13.33;;
58260;SDS011;44058;52.898;6.502;2023-01-29T00:38:55;18.87;;;13.17;;
58260;SDS011;44058;52.898;6.502;2023-01-29T00:41:27;15.55;;;12.10;;
58260;SDS011;44058;52.898;6.502;2023-01-29T00:44:12;18.52;;;12.55;;
58260;SDS011;44058;52.898;6.502;2023-01-29T00:46:57;19.07;;;13.83;;
58260;SDS011;44058;52.898;6.502;2023-01-29T00:49:24;18.97;;;13.60;;
58260;SDS011;44058;52.898;6.502;2023-01-29T00:51:50;18.00;;;13.33;;
58260;SDS011;44058;52.898;6.502;2023-01-29T00:54:35;19.70;;;12.77;;
58260;SDS011;44058;52.898;6.502;2023-01-29T00:57:02;19.27;;;13.10;;
58260;SDS011;44058;52.898;6.502;2023-01-29T00:59:28;16.40;;;12.37;;
58260;SDS011;44058;52.898;6.502;2023-01-29T01:01:55;19.03;;;13.53;;
58260;SDS011;44058;52.898;6.502;2023-01-29T01:04:40;17.73;;;12.90;;
58260;SDS011;44058;52.898;6.502;2023-01-29T01:07:06;18.07;;;12.83;;
58260;SDS011;44058;52.898;6.502;2023-01-29T01:09:35;18.37;;;13.00;;
58260;SDS011;44058;52.898;6.502;2023-01-29T01:12:20;17.07;;;12.60;;
58260;SDS011;44058;52.898;6.502;2023-01-29T01:14:46;18.73;;;12.88;;
58260;SDS011;44058;52.898;6.502;2023-01-29T01:17:13;17.40;;;12.90;;
58260;SDS011;44058;52.898;6.502;2023-01-29T01:19:39;19.97;;;13.73;;
58260;SDS011;44058;52.898;6.502;2023-01-29T01:22:05;17.70;;;12.90;;
58260;SDS011;44058;52.898;6.502;2023-01-29T01:24:32;20.60;;;12.70;;
58260;SDS011;44058;52.898;6.502;2023-01-29T01:26:58;17.08;;;12.15;;
58260;SDS011;44058;52.898;6.502;2023-01-29T01:29:24;17.67;;;12.77;;
58260;SDS011;44058;52.898;6.502;2023-01-29T01:31:52;19.67;;;13.63;;
58260;SDS011;44058;52.898;6.502;2023-01-29T01:34:18;17.47;;;13.67;;
58260;SDS011;44058;52.898;6.502;2023-01-29T01:36:44;19.53;;;13.00;;
58260;SDS011;44058;52.898;6.502;2023-01-29T01:39:10;17.90;;;13.00;;
58260;SDS011;44058;52.898;6.502;2023-01-29T01:41:36;19.03;;;13.20;;
58260;SDS011;44058;52.898;6.502;2023-01-29T01:44:03;17.20;;;12.88;;
58260;SDS011;44058;52.898;6.502;2023-01-29T01:46:29;20.25;;;12.45;;
58260;SDS011;44058;52.898;6.502;2023-01-29T01:49:13;19.10;;;12.37;;
58260;SDS011;44058;52.898;6.502;2023-01-29T01:51:42;18.95;;;13.23;;
58260;SDS011;44058;52.898;6.502;2023-01-29T01:54:20;17.83;;;12.88;;
58260;SDS011;44058;52.898;6.502;2023-01-29T01:56:48;15.60;;;12.45;;
58260;SDS011;44058;52.898;6.502;2023-01-29T01:59:18;17.60;;;12.93;;
58260;SDS011;44058;52.898;6.502;2023-01-29T02:01:45;18.90;;;12.50;;
58260;SDS011;44058;52.898;6.502;2023-01-29T02:04:18;18.73;;;13.00;;
58260;SDS011;44058;52.898;6.502;2023-01-29T02:07:04;21.63;;;13.27;;
58260;SDS011;44058;52.898;6.502;2023-01-29T02:10:00;19.23;;;12.43;;
58260;SDS011;44058;52.898;6.502;2023-01-29T02:12:28;17.08;;;11.68;;
58260;SDS011;44058;52.898;6.502;2023-01-29T02:14:55;17.92;;;12.93;;
58260;SDS011;44058;52.898;6.502;2023-01-29T02:17:21;18.63;;;12.50;;
58260;SDS011;44058;52.898;6.502;2023-01-29T02:28:05;16.97;;;12.40;;
58260;SDS011;44058;52.898;6.502;2023-01-29T02:35:41;19.33;;;12.50;;
58260;SDS011;44058;52.898;6.502;2023-01-29T02:38:10;16.83;;;12.23;;
58260;SDS011;44058;52.898;6.502;2023-01-29T02:40:44;16.95;;;11.43;;
58260;SDS011;44058;52.898;6.502;2023-01-29T02:54:05;15.63;;;11.60;;
58260;SDS011;44058;52.898;6.502;2023-01-29T02:56:35;16.93;;;12.37;;
58260;SDS011;44058;52.898;6.502;2023-01-29T02:59:07;16.33;;;11.30;;
58260;SDS011;44058;52.898;6.502;2023-01-29T03:01:35;15.50;;;12.20;;
58260;SDS011;44058;52.898;6.502;2023-01-29T03:04:06;18.35;;;12.68;;
58260;SDS011;44058;52.898;6.502;2023-01-29T03:06:40;15.07;;;11.40;;
58260;SDS011;44058;52.898;6.502;2023-01-29T03:12:14;16.97;;;12.37;;
58260;SDS011;44058;52.898;6.502;2023-01-29T03:14:52;17.83;;;12.17;;
58260;SDS011;44058;52.898;6.502;2023-01-29T03:17:46;19.27;;;12.50;;
58260;SDS011;44058;52.898;6.502;2023-01-29T03:20:15;17.70;;;12.33;;
58260;SDS011;44058;52.898;6.502;2023-01-29T03:22:43;17.53;;;12.33;;
58260;SDS011;44058;52.898;6.502;2023-01-29T03:25:10;17.07;;;11.70;;
58260;SDS011;44058;52.898;6.502;2023-01-29T03:27:58;15.45;;;11.88;;
58260;SDS011;44058;52.898;6.502;2023-01-29T03:30:47;21.43;;;12.67;;
58260;SDS011;44058;52.898;6.502;2023-01-29T03:33:34;17.67;;;12.40;;
58260;SDS011;44058;52.898;6.502;2023-01-29T03:36:11;17.25;;;11.70;;
58260;SDS011;44058;52.898;6.502;2023-01-29T03:38:38;18.23;;;11.88;;
58260;SDS011;44058;52.898;6.502;2023-01-29T03:41:06;17.33;;;12.23;;
58260;SDS011;44058;52.898;6.502;2023-01-29T03:43:39;18.55;;;12.25;;
58260;SDS011;44058;52.898;6.502;2023-01-29T03:46:11;17.00;;;12.73;;
58260;SDS011;44058;52.898;6.502;2023-01-29T03:48:46;15.23;;;11.88;;
58260;SDS011;44058;52.898;6.502;2023-01-29T03:54:20;16.33;;;12.60;;
58260;SDS011;44058;52.898;6.502;2023-01-29T03:57:01;19.87;;;13.27;;
58260;SDS011;44058;52.898;6.502;2023-01-29T04:01:59;16.65;;;12.73;;
58260;SDS011;44058;52.898;6.502;2023-01-29T04:04:26;18.07;;;13.60;;
58260;SDS011;44058;52.898;6.502;2023-01-29T04:06:54;17.87;;;13.20;;
58260;SDS011;44058;52.898;6.502;2023-01-29T04:09:29;18.73;;;14.25;;
58260;SDS011;44058;52.898;6.502;2023-01-29T04:12:04;19.53;;;13.67;;
58260;SDS011;44058;52.898;6.502;2023-01-29T04:14:33;17.93;;;13.70;;
58260;SDS011;44058;52.898;6.502;2023-01-29T04:17:00;19.17;;;13.50;;
58260;SDS011;44058;52.898;6.502;2023-01-29T04:19:28;20.25;;;13.75;;
58260;SDS011;44058;52.898;6.502;2023-01-29T04:21:59;18.47;;;14.80;;
58260;SDS011;44058;52.898;6.502;2023-01-29T04:24:26;21.85;;;14.40;;
58260;SDS011;44058;52.898;6.502;2023-01-29T04:32:15;19.53;;;14.57;;
58260;SDS011;44058;52.898;6.502;2023-01-29T04:37:11;23.53;;;15.97;;
58260;SDS011;44058;52.898;6.502;2023-01-29T04:44:57;22.27;;;15.20;;
58260;SDS011;44058;52.898;6.502;2023-01-29T04:58:07;20.93;;;16.37;;
58260;SDS011;44058;52.898;6.502;2023-01-29T05:00:42;22.55;;;16.45;;
58260;SDS011;44058;52.898;6.502;2023-01-29T05:03:12;21.60;;;16.30;;
58260;SDS011;44058;52.898;6.502;2023-01-29T05:05:39;23.67;;;16.83;;
58260;SDS011;44058;52.898;6.502;2023-01-29T05:08:06;23.47;;;16.77;;
58260;SDS011;44058;52.898;6.502;2023-01-29T05:10:33;22.80;;;16.00;;
58260;SDS011;44058;52.898;6.502;2023-01-29T05:13:00;23.30;;;16.33;;
58260;SDS011;44058;52.898;6.502;2023-01-29T05:15:29;21.80;;;16.30;;
58260;SDS011;44058;52.898;6.502;2023-01-29T05:17:56;22.80;;;16.17;;
58260;SDS011;44058;52.898;6.502;2023-01-29T05:20:25;22.25;;;16.15;;
58260;SDS011;44058;52.898;6.502;2023-01-29T05:22:52;24.27;;;17.17;;
58260;SDS011;44058;52.898;6.502;2023-01-29T05:25:20;20.03;;;16.23;;
58260;SDS011;44058;52.898;6.502;2023-01-29T05:27:46;20.67;;;16.93;;
58260;SDS011;44058;52.898;6.502;2023-01-29T05:30:37;21.48;;;16.90;;
58260;SDS011;44058;52.898;6.502;2023-01-29T05:33:04;22.55;;;17.20;;
58260;SDS011;44058;52.898;6.502;2023-01-29T05:35:30;24.20;;;16.55;;
58260;SDS011;44058;52.898;6.502;2023-01-29T05:37:57;20.85;;;16.23;;
58260;SDS011;44058;52.898;6.502;2023-01-29T05:40:23;21.27;;;16.30;;
58260;SDS011;44058;52.898;6.502;2023-01-29T05:42:49;22.48;;;16.40;;
58260;SDS011;44058;52.898;6.502;2023-01-29T05:45:16;20.40;;;15.77;;
58260;SDS011;44058;52.898;6.502;2023-01-29T05:47:42;22.00;;;17.00;;
58260;SDS011;44058;52.898;6.502;2023-01-29T05:50:09;23.75;;;17.52;;
58260;SDS011;44058;52.898;6.502;2023-01-29T05:52:35;21.47;;;16.87;;
58260;SDS011;44058;52.898;6.502;2023-01-29T05:55:01;25.90;;;17.00;;
58260;SDS011;44058;52.898;6.502;2023-01-29T05:57:27;23.77;;;17.43;;
58260;SDS011;44058;52.898;6.502;2023-01-29T05:59:54;22.67;;;17.97;;
58260;SDS011;44058;52.898;6.502;2023-01-29T06:02:20;23.98;;;18.50;;
58260;SDS011;44058;52.898;6.502;2023-01-29T06:04:46;21.38;;;17.52;;
58260;SDS011;44058;52.898;6.502;2023-01-29T06:07:12;22.27;;;17.47;;
58260;SDS011;44058;52.898;6.502;2023-01-29T06:09:38;24.07;;;17.27;;
58260;SDS011;44058;52.898;6.502;2023-01-29T06:12:04;23.67;;;18.27;;
58260;SDS011;44058;52.898;6.502;2023-01-29T06:14:32;23.87;;;17.87;;
58260;SDS011;44058;52.898;6.502;2023-01-29T06:16:58;23.40;;;18.70;;
58260;SDS011;44058;52.898;6.502;2023-01-29T06:19:24;23.10;;;18.50;;
58260;SDS011;44058;52.898;6.502;2023-01-29T06:21:50;24.13;;;19.17;;
58260;SDS011;44058;52.898;6.502;2023-01-29T06:24:16;25.10;;;19.37;;
58260;SDS011;44058;52.898;6.502;2023-01-29T06:26:42;26.45;;;19.35;;
58260;SDS011;44058;52.898;6.502;2023-01-29T06:29:08;25.47;;;20.03;;
58260;SDS011;44058;52.898;6.502;2023-01-29T06:31:35;23.80;;;19.10;;
58260;SDS011;44058;52.898;6.502;2023-01-29T06:34:01;24.50;;;19.95;;
58260;SDS011;44058;52.898;6.502;2023-01-29T06:36:28;26.00;;;20.23;;
58260;SDS011;44058;52.898;6.502;2023-01-29T06:38:54;22.67;;;18.80;;
58260;SDS011;44058;52.898;6.502;2023-01-29T06:41:21;24.20;;;19.07;;
58260;SDS011;44058;52.898;6.502;2023-01-29T06:43:49;25.37;;;19.20;;
58260;SDS011;44058;52.898;6.502;2023-01-29T06:46:15;22.77;;;18.33;;
58260;SDS011;44058;52.898;6.502;2023-01-29T06:48:41;25.43;;;19.47;;
58260;SDS011;44058;52.898;6.502;2023-01-29T06:51:08;25.33;;;19.17;;
58260;SDS011;44058;52.898;6.502;2023-01-29T06:53:35;25.17;;;18.77;;
58260;SDS011;44058;52.898;6.502;2023-01-29T06:56:02;25.57;;;19.30;;
58260;SDS011;44058;52.898;6.502;2023-01-29T06:58:28;25.03;;;19.33;;
58260;SDS011;44058;52.898;6.502;2023-01-29T07:01:01;23.95;;;18.02;;
58260;SDS011;44058;52.898;6.502;2023-01-29T07:03:27;23.87;;;18.27;;
58260;SDS011;44058;52.898;6.502;2023-01-29T07:05:53;25.77;;;19.27;;
58260;SDS011;44058;52.898;6.502;2023-01-29T07:08:19;23.33;;;18.85;;
58260;SDS011;44058;52.898;6.502;2023-01-29T07:10:47;25.10;;;20.23;;
58260;SDS011;44058;52.898;6.502;2023-01-29T07:13:13;25.35;;;19.20;;
58260;SDS011;44058;52.898;6.502;2023-01-29T07:15:39;25.47;;;19.57;;
58260;SDS011;44058;52.898;6.502;2023-01-29T07:18:05;24.83;;;19.02;;
58260;SDS011;44058;52.898;6.502;2023-01-29T07:20:36;27.97;;;20.07;;
58260;SDS011;44058;52.898;6.502;2023-01-29T07:23:03;28.70;;;20.33;;
58260;SDS011;44058;52.898;6.502;2023-01-29T07:25:29;25.53;;;20.07;;
58260;SDS011;44058;52.898;6.502;2023-01-29T07:27:55;24.97;;;19.53;;
58260;SDS011;44058;52.898;6.502;2023-01-29T07:30:21;28.37;;;20.97;;
58260;SDS011;44058;52.898;6.502;2023-01-29T07:32:48;27.27;;;20.50;;
58260;SDS011;44058;52.898;6.502;2023-01-29T07:35:14;27.30;;;20.47;;
58260;SDS011;44058;52.898;6.502;2023-01-29T07:37:40;26.63;;;20.02;;
58260;SDS011;44058;52.898;6.502;2023-01-29T07:40:06;28.50;;;20.10;;
58260;SDS011;44058;52.898;6.502;2023-01-29T07:42:38;29.45;;;20.83;;
58260;SDS011;44058;52.898;6.502;2023-01-29T07:45:06;28.33;;;21.05;;
58260;SDS011;44058;52.898;6.502;2023-01-29T07:47:33;28.77;;;20.37;;
58260;SDS011;44058;52.898;6.502;2023-01-29T07:49:59;26.80;;;20.70;;
58260;SDS011;44058;52.898;6.502;2023-01-29T07:52:25;30.20;;;21.73;;
58260;SDS011;44058;52.898;6.502;2023-01-29T07:54:51;27.42;;;20.75;;
58260;SDS011;44058;52.898;6.502;2023-01-29T07:57:17;26.73;;;20.07;;
58260;SDS011;44058;52.898;6.502;2023-01-29T07:59:43;28.88;;;21.23;;
58260;SDS011;44058;52.898;6.502;2023-01-29T08:02:10;28.43;;;20.17;;
58260;SDS011;44058;52.898;6.502;2023-01-29T08:04:37;28.93;;;21.20;;
58260;SDS011;44058;52.898;6.502;2023-01-29T08:07:03;31.40;;;22.37;;
58260;SDS011;44058;52.898;6.502;2023-01-29T08:09:29;28.73;;;21.10;;
58260;SDS011;44058;52.898;6.502;2023-01-29T08:11:55;28.03;;;20.77;;
58260;SDS011;44058;52.898;6.502;2023-01-29T08:14:22;31.20;;;21.10;;
58260;SDS011;44058;52.898;6.502;2023-01-29T08:16:48;30.50;;;21.05;;
58260;SDS011;44058;52.898;6.502;2023-01-29T08:19:14;30.07;;;21.70;;
58260;SDS011;44058;52.898;6.502;2023-01-29T08:21:41;32.17;;;21.93;;
58260;SDS011;44058;52.898;6.502;2023-01-29T08:24:08;30.37;;;21.43;;
58260;SDS011;44058;52.898;6.502;2023-01-29T08:26:34;30.65;;;21.55;;
58260;SDS011;44058;52.898;6.502;2023-01-29T08:29:00;28.05;;;20.73;;
58260;SDS011;44058;52.898;6.502;2023-01-29T08:31:26;27.40;;;21.03;;
58260;SDS011;44058;52.898;6.502;2023-01-29T08:33:53;28.43;;;21.77;;
58260;SDS011;44058;52.898;6.502;2023-01-29T08:36:20;30.53;;;21.60;;
58260;SDS011;44058;52.898;6.502;2023-01-29T08:38:46;29.23;;;20.67;;
58260;SDS011;44058;52.898;6.502;2023-01-29T08:41:12;30.60;;;21.07;;
58260;SDS011;44058;52.898;6.502;2023-01-29T08:43:38;30.17;;;21.23;;
58260;SDS011;44058;52.898;6.502;2023-01-29T08:46:04;33.47;;;22.50;;
58260;SDS011;44058;52.898;6.502;2023-01-29T08:48:31;31.53;;;21.03;;
58260;SDS011;44058;52.898;6.502;2023-01-29T08:50:58;31.33;;;22.35;;
58260;SDS011;44058;52.898;6.502;2023-01-29T08:53:24;30.38;;;20.73;;
58260;SDS011;44058;52.898;6.502;2023-01-29T08:55:51;34.30;;;22.10;;
58260;SDS011;44058;52.898;6.502;2023-01-29T08:58:17;28.70;;;20.57;;
58260;SDS011;44058;52.898;6.502;2023-01-29T09:00:43;29.07;;;20.80;;
58260;SDS011;44058;52.898;6.502;2023-01-29T09:03:09;32.70;;;21.57;;
58260;SDS011;44058;52.898;6.502;2023-01-29T09:05:36;30.63;;;21.10;;
58260;SDS011;44058;52.898;6.502;2023-01-29T09:08:03;29.47;;;20.67;;
58260;SDS011;44058;52.898;6.502;2023-01-29T09:10:30;29.03;;;20.90;;
58260;SDS011;44058;52.898;6.502;2023-01-29T09:12:56;31.23;;;21.23;;
58260;SDS011;44058;52.898;6.502;2023-01-29T09:15:22;30.67;;;22.20;;
58260;SDS011;44058;52.898;6.502;2023-01-29T09:17:48;28.33;;;20.23;;
58260;SDS011;44058;52.898;6.502;2023-01-29T09:20:15;35.13;;;22.15;;
58260;SDS011;44058;52.898;6.502;2023-01-29T09:22:41;30.80;;;21.10;;
58260;SDS011;44058;52.898;6.502;2023-01-29T09:25:07;30.27;;;21.13;;
58260;SDS011;44058;52.898;6.502;2023-01-29T09:27:34;31.43;;;20.73;;
58260;SDS011;44058;52.898;6.502;2023-01-29T09:30:00;31.13;;;21.43;;
58260;SDS011;44058;52.898;6.502;2023-01-29T09:32:26;30.73;;;20.67;;
58260;SDS011;44058;52.898;6.502;2023-01-29T09:34:55;33.25;;;21.35;;
58260;SDS011;44058;52.898;6.502;2023-01-29T09:37:21;31.93;;;21.20;;
58260;SDS011;44058;52.898;6.502;2023-01-29T09:39:48;32.13;;;21.53;;
58260;SDS011;44058;52.898;6.502;2023-01-29T09:42:20;31.77;;;21.15;;
58260;SDS011;44058;52.898;6.502;2023-01-29T09:44:52;34.42;;;21.52;;
58260;SDS011;44058;52.898;6.502;2023-01-29T09:47:20;31.92;;;21.08;;
58260;SDS011;44058;52.898;6.502;2023-01-29T09:49:50;30.42;;;21.17;;
58260;SDS011;44058;52.898;6.502;2023-01-29T09:52:28;30.85;;;22.08;;
58260;SDS011;44058;52.898;6.502;2023-01-29T09:55:06;30.67;;;20.90;;
58260;SDS011;44058;52.898;6.502;2023-01-29T09:57:45;29.90;;;21.67;;
58260;SDS011;44058;52.898;6.502;2023-01-29T10:00:17;32.30;;;22.73;;
58260;SDS011;44058;52.898;6.502;2023-01-29T10:02:48;30.13;;;21.65;;
58260;SDS011;44058;52.898;6.502;2023-01-29T10:08:01;32.23;;;21.23;;
58260;SDS011;44058;52.898;6.502;2023-01-29T10:23:17;30.45;;;20.80;;
58260;SDS011;44058;52.898;6.502;2023-01-29T10:28:15;31.75;;;20.83;;
58260;SDS011;44058;52.898;6.502;2023-01-29T10:30:48;29.60;;;21.00;;
58260;SDS011;44058;52.898;6.502;2023-01-29T10:33:23;32.70;;;22.10;;
58260;SDS011;44058;52.898;6.502;2023-01-29T10:35:53;32.05;;;21.55;;
58260;SDS011;44058;52.898;6.502;2023-01-29T10:38:26;31.23;;;21.90;;
58260;SDS011;44058;52.898;6.502;2023-01-29T10:40:56;30.73;;;20.70;;
58260;SDS011;44058;52.898;6.502;2023-01-29T10:43:31;29.73;;;21.13;;
58260;SDS011;44058;52.898;6.502;2023-01-29T10:54:15;31.48;;;20.98;;
58260;SDS011;44058;52.898;6.502;2023-01-29T11:01:42;35.72;;;22.90;;
58260;SDS011;44058;52.898;6.502;2023-01-29T11:04:08;31.97;;;21.43;;
58260;SDS011;44058;52.898;6.502;2023-01-29T11:06:37;30.00;;;20.65;;
58260;SDS011;44058;52.898;6.502;2023-01-29T11:11:48;29.23;;;20.73;;
58260;SDS011;44058;52.898;6.502;2023-01-29T11:14:18;33.57;;;22.50;;
58260;SDS011;44058;52.898;6.502;2023-01-29T11:16:47;30.75;;;21.33;;
58260;SDS011;44058;52.898;6.502;2023-01-29T11:19:14;31.27;;;21.20;;
58260;SDS011;44058;52.898;6.502;2023-01-29T11:21:55;35.22;;;21.58;;
58260;SDS011;44058;52.898;6.502;2023-01-29T11:24:21;32.35;;;21.73;;
58260;SDS011;44058;52.898;6.502;2023-01-29T11:26:48;34.65;;;22.17;;
58260;SDS011;44058;52.898;6.502;2023-01-29T11:31:59;33.08;;;22.23;;
58260;SDS011;44058;52.898;6.502;2023-01-29T11:34:27;30.13;;;21.58;;
58260;SDS011;44058;52.898;6.502;2023-01-29T11:39:24;31.23;;;21.48;;
58260;SDS011;44058;52.898;6.502;2023-01-29T11:41:52;35.85;;;21.92;;
58260;SDS011;44058;52.898;6.502;2023-01-29T11:44:19;35.00;;;21.45;;
58260;SDS011;44058;52.898;6.502;2023-01-29T11:46:45;35.00;;;22.42;;
58260;SDS011;44058;52.898;6.502;2023-01-29T11:49:19;31.25;;;21.17;;
58260;SDS011;44058;52.898;6.502;2023-01-29T11:51:49;29.70;;;20.80;;
58260;SDS011;44058;52.898;6.502;2023-01-29T11:54:16;30.73;;;21.30;;
58260;SDS011;44058;52.898;6.502;2023-01-29T11:56:44;32.55;;;21.75;;
58260;SDS011;44058;52.898;6.502;2023-01-29T12:02:01;30.00;;;21.17;;
58260;SDS011;44058;52.898;6.502;2023-01-29T12:04:28;30.47;;;21.77;;
58260;SDS011;44058;52.898;6.502;2023-01-29T12:06:55;33.67;;;20.75;;
58260;SDS011;44058;52.898;6.502;2023-01-29T12:09:22;31.43;;;21.67;;
58260;SDS011;44058;52.898;6.502;2023-01-29T12:11:48;25.20;;;18.90;;
58260;SDS011;44058;52.898;6.502;2023-01-29T12:14:23;28.98;;;20.10;;
58260;SDS011;44058;52.898;6.502;2023-01-29T12:16:53;28.45;;;20.73;;
58260;SDS011;44058;52.898;6.502;2023-01-29T12:21:48;30.60;;;19.67;;
58260;SDS011;44058;52.898;6.502;2023-01-29T12:26:43;29.57;;;19.97;;
58260;SDS011;44058;52.898;6.502;2023-01-29T12:29:23;27.98;;;19.67;;
58260;SDS011;44058;52.898;6.502;2023-01-29T12:31:57;29.02;;;19.65;;
58260;SDS011;44058;52.898;6.502;2023-01-29T12:34:32;26.67;;;19.10;;
58260;SDS011;44058;52.898;6.502;2023-01-29T12:39:38;28.80;;;19.58;;
58260;SDS011;44058;52.898;6.502;2023-01-29T12:42:08;28.15;;;19.42;;
58260;SDS011;44058;52.898;6.502;2023-01-29T12:44:39;28.00;;;19.30;;
58260;SDS011;44058;52.898;6.502;2023-01-29T12:47:11;27.98;;;20.23;;
58260;SDS011;44058;52.898;6.502;2023-01-29T12:49:39;29.65;;;20.48;;
58260;SDS011;44058;52.898;6.502;2023-01-29T12:54:34;31.88;;;21.38;;
58260;SDS011;44058;52.898;6.502;2023-01-29T12:57:02;32.10;;;20.95;;
58260;SDS011;44058;52.898;6.502;2023-01-29T12:59:35;31.35;;;20.67;;
58260;SDS011;44058;52.898;6.502;2023-01-29T13:02:10;32.08;;;21.25;;
58260;SDS011;44058;52.898;6.502;2023-01-29T13:04:44;35.70;;;21.40;;
58260;SDS011;44058;52.898;6.502;2023-01-29T13:08:00;32.13;;;22.02;;
58260;SDS011;44058;52.898;6.502;2023-01-29T13:10:02;32.00;;;22.35;;
58260;SDS011;44058;52.898;6.502;2023-01-29T13:12:29;32.75;;;22.55;;
58260;SDS011;44058;52.898;6.502;2023-01-29T13:14:58;35.60;;;23.48;;
58260;SDS011;44058;52.898;6.502;2023-01-29T13:17:27;33.75;;;21.77;;
58260;SDS011;44058;52.898;6.502;2023-01-29T13:19:56;33.05;;;21.83;;
58260;SDS011;44058;52.898;6.502;2023-01-29T13:22:27;30.70;;;21.73;;
58260;SDS011;44058;52.898;6.502;2023-01-29T13:24:54;33.78;;;22.75;;
58260;SDS011;44058;52.898;6.502;2023-01-29T13:27:23;32.58;;;22.77;;
58260;SDS011;44058;52.898;6.502;2023-01-29T13:29:49;34.00;;;22.65;;
58260;SDS011;44058;52.898;6.502;2023-01-29T13:32:25;32.78;;;22.65;;
58260;SDS011;44058;52.898;6.502;2023-01-29T13:34:54;34.42;;;21.30;;
58260;SDS011;44058;52.898;6.502;2023-01-29T13:39:49;33.15;;;21.95;;
58260;SDS011;44058;52.898;6.502;2023-01-29T13:42:16;31.50;;;22.23;;
58260;SDS011;44058;52.898;6.502;2023-01-29T13:44:47;34.17;;;22.05;;
58260;SDS011;44058;52.898;6.502;2023-01-29T13:47:27;31.58;;;21.75;;
58260;SDS011;44058;52.898;6.502;2023-01-29T13:50:14;33.50;;;22.48;;
58260;SDS011;44058;52.898;6.502;2023-01-29T13:52:43;35.25;;;22.77;;
58260;SDS011;44058;52.898;6.502;2023-01-29T14:02:46;36.50;;;22.95;;
58260;SDS011;44058;52.898;6.502;2023-01-29T14:07:58;33.42;;;22.98;;
58260;SDS011;44058;52.898;6.502;2023-01-29T14:10:26;36.87;;;23.23;;
58260;SDS011;44058;52.898;6.502;2023-01-29T14:12:53;37.35;;;23.10;;
58260;SDS011;44058;52.898;6.502;2023-01-29T14:15:20;32.65;;;23.13;;
58260;SDS011;44058;52.898;6.502;2023-01-29T14:17:57;36.70;;;23.75;;
58260;SDS011;44058;52.898;6.502;2023-01-29T14:20:37;36.28;;;24.23;;
58260;SDS011;44058;52.898;6.502;2023-01-29T14:23:06;34.42;;;22.77;;
58260;SDS011;44058;52.898;6.502;2023-01-29T14:25:33;40.63;;;24.47;;
58260;SDS011;44058;52.898;6.502;2023-01-29T14:28:02;34.65;;;24.50;;
58260;SDS011;44058;52.898;6.502;2023-01-29T14:30:30;38.10;;;24.05;;
58260;SDS011;44058;52.898;6.502;2023-01-29T14:32:56;41.03;;;25.02;;
58260;SDS011;44058;52.898;6.502;2023-01-29T14:35:23;35.88;;;24.42;;
58260;SDS011;44058;52.898;6.502;2023-01-29T14:37:54;37.17;;;23.90;;
58260;SDS011;44058;52.898;6.502;2023-01-29T14:40:22;39.37;;;24.73;;
58260;SDS011;44058;52.898;6.502;2023-01-29T14:45:20;42.35;;;26.83;;
58260;SDS011;44058;52.898;6.502;2023-01-29T14:55:43;40.58;;;26.08;;
58260;SDS011;44058;52.898;6.502;2023-01-29T14:58:12;39.83;;;26.55;;
58260;SDS011;44058;52.898;6.502;2023-01-29T15:00:40;43.15;;;26.98;;
58260;SDS011;44058;52.898;6.502;2023-01-29T15:03:12;39.03;;;26.60;;
58260;SDS011;44058;52.898;6.502;2023-01-29T15:05:41;42.53;;;26.85;;
58260;SDS011;44058;52.898;6.502;2023-01-29T15:08:18;42.88;;;26.70;;
58260;SDS011;44058;52.898;6.502;2023-01-29T15:13:40;44.47;;;28.07;;
58260;SDS011;44058;52.898;6.502;2023-01-29T15:16:13;44.72;;;29.17;;
58260;SDS011;44058;52.898;6.502;2023-01-29T15:18:42;41.17;;;27.80;;
58260;SDS011;44058;52.898;6.502;2023-01-29T15:21:12;40.63;;;26.75;;
58260;SDS011;44058;52.898;6.502;2023-01-29T15:23:39;47.67;;;28.08;;
58260;SDS011;44058;52.898;6.502;2023-01-29T15:26:23;46.55;;;30.02;;
58260;SDS011;44058;52.898;6.502;2023-01-29T15:29:18;44.92;;;28.23;;
58260;SDS011;44058;52.898;6.502;2023-01-29T15:34:06;49.65;;;30.27;;
58260;SDS011;44058;52.898;6.502;2023-01-29T15:36:32;41.25;;;27.50;;
58260;SDS011;44058;52.898;6.502;2023-01-29T15:39:32;44.80;;;28.40;;
58260;SDS011;44058;52.898;6.502;2023-01-29T15:42:11;46.97;;;30.02;;
58260;SDS011;44058;52.898;6.502;2023-01-29T15:44:43;47.35;;;29.13;;
58260;SDS011;44058;52.898;6.502;2023-01-29T15:47:10;47.42;;;28.85;;
58260;SDS011;44058;52.898;6.502;2023-01-29T15:49:36;42.60;;;29.52;;
58260;SDS011;44058;52.898;6.502;2023-01-29T15:52:22;45.60;;;29.48;;
58260;SDS011;44058;52.898;6.502;2023-01-29T15:54:50;46.70;;;28.85;;
58260;SDS011;44058;52.898;6.502;2023-01-29T15:57:18;47.38;;;27.70;;
58260;SDS011;44058;52.898;6.502;2023-01-29T15:59:45;45.20;;;27.97;;
58260;SDS011;44058;52.898;6.502;2023-01-29T16:05:00;43.17;;;28.63;;
58260;SDS011;44058;52.898;6.502;2023-01-29T16:07:26;42.23;;;27.57;;
58260;SDS011;44058;52.898;6.502;2023-01-29T16:09:53;43.13;;;28.43;;
58260;SDS011;44058;52.898;6.502;2023-01-29T16:12:20;44.15;;;28.63;;
58260;SDS011;44058;52.898;6.502;2023-01-29T16:14:47;47.10;;;28.00;;
58260;SDS011;44058;52.898;6.502;2023-01-29T16:17:26;41.42;;;27.83;;
58260;SDS011;44058;52.898;6.502;2023-01-29T16:19:59;45.28;;;29.30;;
58260;SDS011;44058;52.898;6.502;2023-01-29T16:22:28;44.20;;;28.77;;
58260;SDS011;44058;52.898;6.502;2023-01-29T16:24:56;41.83;;;27.80;;
58260;SDS011;44058;52.898;6.502;2023-01-29T16:27:22;44.00;;;27.27;;
58260;SDS011;44058;52.898;6.502;2023-01-29T16:29:49;42.83;;;28.23;;
58260;SDS011;44058;52.898;6.502;2023-01-29T16:32:15;49.43;;;28.93;;
58260;SDS011;44058;52.898;6.502;2023-01-29T16:34:43;45.60;;;27.90;;
58260;SDS011;44058;52.898;6.502;2023-01-29T16:37:30;44.47;;;28.13;;
58260;SDS011;44058;52.898;6.502;2023-01-29T16:39:58;42.20;;;26.83;;
58260;SDS011;44058;52.898;6.502;2023-01-29T16:42:28;42.03;;;27.20;;
58260;SDS011;44058;52.898;6.502;2023-01-29T16:49:56;45.10;;;28.30;;
58260;SDS011;44058;52.898;6.502;2023-01-29T16:52:24;43.40;;;28.77;;
58260;SDS011;44058;52.898;6.502;2023-01-29T16:54:50;39.93;;;27.17;;
58260;SDS011;44058;52.898;6.502;2023-01-29T16:57:19;42.92;;;27.20;;
58260;SDS011;44058;52.898;6.502;2023-01-29T16:59:46;41.17;;;26.60;;